Virginiborg — PBDL — position and weather

sailwx.info

Track history (hours):
 
Tides and Currents Weather Stations Pressure Air Temp Water Temp Dewpoint Dewpoint Depression Visibility Wind Speed Wind Dir Waves Ship Positions

Virginiborg

Last reported at 2016-May-03 08:33 UTC. Time now 2016-May-03 08:47 UTC.
Position N 44°19' E 008°30'.

Length 132 m; draft 4.6 m.

Type: Cargo ship. MMSI: 244632000.

Date/timePositionNaut miles runAvg speedWind from/ knotsBaromVisibWave heightAir tempDewpointWater temp
2016-May-03 08:33N 44°19' E 008°30'0 0.0
2016-May-03 07:33N 44°19' E 008°30'0 0.0
2016-May-03 06:33N 44°19' E 008°30'0 0.0
2016-May-03 05:33N 44°19' E 008°30'0 0.0
2016-May-03 04:33N 44°19' E 008°30'0 0.0
2016-May-03 03:33N 44°19' E 008°30'0 0.0
2016-May-03 02:33N 44°19' E 008°30'0 0.0
2016-May-03 01:33N 44°19' E 008°30'0 0.0
2016-May-03 00:33N 44°19' E 008°30'0 0.0
2016-May-02 23:33N 44°19' E 008°30'0 0.0
2016-May-02 22:33N 44°19' E 008°30'0 0.0
2016-May-02 21:33N 44°19' E 008°30'0 0.0
2016-May-02 20:33N 44°19' E 008°30'0 0.0
2016-May-02 19:33N 44°19' E 008°30'0 0.0
2016-May-02 18:33N 44°19' E 008°30'0 0.0
2016-May-02 17:33N 44°19' E 008°30'0 0.0
2016-May-02 16:33N 44°19' E 008°30'0 0.0
2016-May-02 15:33N 44°19' E 008°30'0 0.0
2016-May-02 14:33N 44°19' E 008°30'0 0.0
2016-May-02 13:33N 44°19' E 008°30'0 0.0
2016-May-02 12:33N 44°19' E 008°30'0 0.0
2016-May-02 11:33N 44°19' E 008°30'0 0.0
2016-May-02 10:33N 44°19' E 008°30'0 0.0
2016-May-02 09:33N 44°19' E 008°30'0 0.0
2016-May-02 08:33N 44°19' E 008°30'0 0.0
2016-May-02 07:33N 44°19' E 008°30'0 0.0
2016-May-02 06:33N 44°19' E 008°30'0 0.0
2016-May-02 05:33N 44°19' E 008°30'0 0.0
2016-May-02 04:33N 44°19' E 008°30'1 0.9
2016-May-02 03:33N 44°18' E 008°31'0 0.1
2016-May-02 02:31N 44°18' E 008°31'0 0.1
2016-May-02 01:31N 44°18' E 008°31'0 0.0
2016-May-02 00:33N 44°18' E 008°31'0 0.0
2016-May-01 23:33N 44°18' E 008°31'0 0.0
2016-May-01 22:32N 44°18' E 008°31'0 0.0
2016-May-01 21:32N 44°18' E 008°31'0 0.0
2016-May-01 20:31N 44°18' E 008°31'0 0.1
2016-May-01 19:31N 44°18' E 008°31'0 0.0
2016-May-01 18:31N 44°18' E 008°31'0 0.0
2016-May-01 17:30N 44°18' E 008°31'0 0.0
2016-May-01 16:33N 44°18' E 008°31'0 0.0
2016-May-01 15:32N 44°18' E 008°31'0 0.0
2016-May-01 14:32N 44°18' E 008°31'0 0.0
2016-May-01 13:31N 44°18' E 008°31'0 0.0
2016-May-01 12:28N 44°18' E 008°31'0 0.0
2016-May-01 11:31N 44°18' E 008°31'0 0.0
2016-May-01 10:27N 44°18' E 008°31'0 0.0
2016-May-01 09:33N 44°18' E 008°31'0 0.0
2016-May-01 08:32N 44°18' E 008°31'0 0.0
2016-May-01 07:32N 44°18' E 008°31'0 0.0
2016-May-01 06:32N 44°18' E 008°31'3 3.2
2016-May-01 05:33N 44°17' E 008°35'8 8.4
2016-May-01 04:33N 44°12' E 008°44'4 4.3
2016-May-01 03:34N 44°10' E 008°50'5 5.1
2016-May-01 02:34N 44°07' E 008°55'7 6.5
2016-May-01 01:34N 44°03' E 009°02'7 7.1
2016-May-01 00:34N 43°58' E 009°10'7 6.9
2016-Apr-30 23:34N 43°54' E 009°18'7 7.1
2016-Apr-30 22:33N 43°50' E 009°25'7 7.0
2016-Apr-30 21:34N 43°46' E 009°34'7 7.1
2016-Apr-30 20:34N 43°42' E 009°42'7 6.7
2016-Apr-30 19:34N 43°38' E 009°49'6 6.1
2016-Apr-30 18:33N 43°34' E 009°56'7 7.3
2016-Apr-30 17:34N 43°31' E 010°05'7 6.9
2016-Apr-30 16:34N 43°31' E 010°14'3 3.2
2016-Apr-30 15:32N 43°33' E 010°18'0 0.0
2016-Apr-30 14:31N 43°33' E 010°18'0 0.0
2016-Apr-30 13:31N 43°33' E 010°18'0 0.0
2016-Apr-30 12:33N 43°33' E 010°18'0 0.0
2016-Apr-30 11:33N 43°33' E 010°18'0 0.0
2016-Apr-30 10:32N 43°33' E 010°18'0 0.0
2016-Apr-30 09:29N 43°33' E 010°18'0 0.0
2016-Apr-30 08:32N 43°33' E 010°18'0 0.0
2016-Apr-30 07:31N 43°33' E 010°18'0 0.0
2016-Apr-30 06:31N 43°33' E 010°18'0 0.0
2016-Apr-30 05:33N 43°33' E 010°18'0 0.0
2016-Apr-30 04:33N 43°33' E 010°18'0 0.0
2016-Apr-30 03:32N 43°33' E 010°18'0 0.0
2016-Apr-30 02:32N 43°33' E 010°18'0 0.0
2016-Apr-30 01:32N 43°33' E 010°18'0 0.0
2016-Apr-30 00:28N 43°33' E 010°18'0 0.0
2016-Apr-29 23:31N 43°33' E 010°18'0 0.0
2016-Apr-29 22:30N 43°33' E 010°18'0 0.0
2016-Apr-29 21:30N 43°33' E 010°18'0 0.0
2016-Apr-29 20:32N 43°33' E 010°18'0 0.0
2016-Apr-29 19:29N 43°33' E 010°18'0 0.0
2016-Apr-29 18:32N 43°33' E 010°18'0 0.0
2016-Apr-29 17:28N 43°33' E 010°18'0 0.0
2016-Apr-29 16:31N 43°33' E 010°18'0 0.0
2016-Apr-29 15:33N 43°33' E 010°18'0 0.0
2016-Apr-29 14:33N 43°33' E 010°18'0 0.0
2016-Apr-29 13:32N 43°33' E 010°18'0 0.0
2016-Apr-29 12:32N 43°33' E 010°18'0 0.0
2016-Apr-29 11:28N 43°33' E 010°18'0 0.0
2016-Apr-29 10:28N 43°33' E 010°18'0 0.0
2016-Apr-29 09:31N 43°33' E 010°18'0 0.0
2016-Apr-29 08:33N 43°33' E 010°18'0 0.0
2016-Apr-29 07:33N 43°33' E 010°18'0 0.0
2016-Apr-29 06:32N 43°33' E 010°18'0 0.0
2016-Apr-29 05:32N 43°33' E 010°18'0 0.0
2016-Apr-29 04:31N 43°33' E 010°18'0 0.0
2016-Apr-29 03:31N 43°33' E 010°18'0 0.0
2016-Apr-29 02:31N 43°33' E 010°18'0 0.0
2016-Apr-29 01:33N 43°33' E 010°18'0 0.0
2016-Apr-29 00:33N 43°33' E 010°18'0 0.0
2016-Apr-28 23:32N 43°33' E 010°18'0 0.0
2016-Apr-28 22:32N 43°33' E 010°18'0 0.0
2016-Apr-28 21:31N 43°33' E 010°18'0 0.0
2016-Apr-28 20:31N 43°33' E 010°18'0 0.0
2016-Apr-28 19:31N 43°33' E 010°18'0 0.0
2016-Apr-28 18:33N 43°33' E 010°18'0 0.0
2016-Apr-28 17:33N 43°33' E 010°18'0 0.0
2016-Apr-28 16:32N 43°33' E 010°18'0 0.0
2016-Apr-28 15:32N 43°33' E 010°18'0 0.0
2016-Apr-28 14:31N 43°33' E 010°18'0 0.0
2016-Apr-28 13:31N 43°33' E 010°18'0 0.0
2016-Apr-28 12:31N 43°33' E 010°18'0 0.0
2016-Apr-28 11:30N 43°33' E 010°18'0 0.0
2016-Apr-28 10:30N 43°33' E 010°18'0 0.0
2016-Apr-28 09:26N 43°33' E 010°18'0 0.0
2016-Apr-28 08:26N 43°33' E 010°18'0 0.0
2016-Apr-28 07:31N 43°33' E 010°18'0 0.0
2016-Apr-28 06:33N 43°33' E 010°18'0 0.0
2016-Apr-28 05:30N 43°33' E 010°18'0 0.0
2016-Apr-28 04:33N 43°33' E 010°18'0 0.0
2016-Apr-28 03:33N 43°33' E 010°18'0 0.0
2016-Apr-28 02:32N 43°33' E 010°18'0 0.0
2016-Apr-28 01:32N 43°33' E 010°18'1 0.6
2016-Apr-28 00:33N 43°33' E 010°18'5 4.5
2016-Apr-27 23:33N 43°29' E 010°16'1 0.9
2016-Apr-27 22:33N 43°28' E 010°15'1 1.1
2016-Apr-27 21:33N 43°28' E 010°13'1 0.6
2016-Apr-27 20:33N 43°28' E 010°13'1 0.9
2016-Apr-27 19:33N 43°29' E 010°12'4 3.8
2016-Apr-27 18:33N 43°26' E 010°09'2 1.6
2016-Apr-27 17:33N 43°26' E 010°11'2 1.7
2016-Apr-27 16:33N 43°27' E 010°13'2 1.8
2016-Apr-27 15:33N 43°27' E 010°15'1 0.6
2016-Apr-27 14:33N 43°27' E 010°16'3 2.9
2016-Apr-27 13:33N 43°25' E 010°13'1 0.9
2016-Apr-27 12:33N 43°26' E 010°14'1 1.2
2016-Apr-27 11:33N 43°26' E 010°13'1 0.7
2016-Apr-27 10:33N 43°27' E 010°13'1 1.3
2016-Apr-27 09:33N 43°28' E 010°14'2 2.2
2016-Apr-27 08:33N 43°27' E 010°11'3 3.0
2016-Apr-27 07:33N 43°25' E 010°09'3 2.9
2016-Apr-27 06:34N 43°22' E 010°10'1 1.0
2016-Apr-27 05:33N 43°23' E 010°10'1 1.1
2016-Apr-27 04:33N 43°24' E 010°10'1 1.2
2016-Apr-27 03:33N 43°25' E 010°08'8 8.5
2016-Apr-27 02:33N 43°20' E 009°59'9 9.2
2016-Apr-27 01:33N 43°16' E 009°47'9 9.3
2016-Apr-27 00:33N 43°13' E 009°36'9 9.3
2016-Apr-26 23:33N 43°09' E 009°24'  
2016-Apr-24 03:31N 40°41' E 001°11'10 9.6
2016-Apr-24 02:29N 40°31' E 001°09'9 9.6
2016-Apr-24 01:33N 40°22' E 001°07'9 9.1
2016-Apr-24 00:33N 40°13' E 001°04'9 9.0
2016-Apr-23 23:32N 40°04' E 001°01'11110.8
2016-Apr-23 13:13N 38°21' E 000°10'2012.0
2016-Apr-23 11:32N 38°04' W 000°05'1211.9
2016-Apr-23 10:33N 37°54' W 000°13'1211.6
2016-Apr-23 09:33N 37°45' W 000°21'  
Track history (hours):
 
Tides and Currents Weather Stations Pressure Air Temp Water Temp Dewpoint Dewpoint Depression Visibility Wind Speed Wind Dir Waves Ship Positions

Virginiborg

Last reported at 2016-May-03 08:33 UTC. Time now 2016-May-03 08:47 UTC.
Position N 44°19' E 008°30'.

Length 132 m; draft 4.6 m.

Type: Cargo ship. MMSI: 244632000.

Date/timePositionNaut miles runAvg speedWind from/ knotsBaromVisibWave heightAir tempDewpointWater temp
2016-May-03 08:33N 44°19' E 008°30'0 0.0
2016-May-03 07:33N 44°19' E 008°30'0 0.0
2016-May-03 06:33N 44°19' E 008°30'0 0.0
2016-May-03 05:33N 44°19' E 008°30'0 0.0
2016-May-03 04:33N 44°19' E 008°30'0 0.0
2016-May-03 03:33N 44°19' E 008°30'0 0.0
2016-May-03 02:33N 44°19' E 008°30'0 0.0
2016-May-03 01:33N 44°19' E 008°30'0 0.0
2016-May-03 00:33N 44°19' E 008°30'0 0.0
2016-May-02 23:33N 44°19' E 008°30'0 0.0
2016-May-02 22:33N 44°19' E 008°30'0 0.0
2016-May-02 21:33N 44°19' E 008°30'0 0.0
2016-May-02 20:33N 44°19' E 008°30'0 0.0
2016-May-02 19:33N 44°19' E 008°30'0 0.0
2016-May-02 18:33N 44°19' E 008°30'0 0.0
2016-May-02 17:33N 44°19' E 008°30'0 0.0
2016-May-02 16:33N 44°19' E 008°30'0 0.0
2016-May-02 15:33N 44°19' E 008°30'0 0.0
2016-May-02 14:33N 44°19' E 008°30'0 0.0
2016-May-02 13:33N 44°19' E 008°30'0 0.0
2016-May-02 12:33N 44°19' E 008°30'0 0.0
2016-May-02 11:33N 44°19' E 008°30'0 0.0
2016-May-02 10:33N 44°19' E 008°30'0 0.0
2016-May-02 09:33N 44°19' E 008°30'0 0.0
2016-May-02 08:33N 44°19' E 008°30'0 0.0
2016-May-02 07:33N 44°19' E 008°30'0 0.0
2016-May-02 06:33N 44°19' E 008°30'0 0.0
2016-May-02 05:33N 44°19' E 008°30'0 0.0
2016-May-02 04:33N 44°19' E 008°30'1 0.9
2016-May-02 03:33N 44°18' E 008°31'0 0.1
2016-May-02 02:31N 44°18' E 008°31'0 0.1
2016-May-02 01:31N 44°18' E 008°31'0 0.0
2016-May-02 00:33N 44°18' E 008°31'0 0.0
2016-May-01 23:33N 44°18' E 008°31'0 0.0
2016-May-01 22:32N 44°18' E 008°31'0 0.0
2016-May-01 21:32N 44°18' E 008°31'0 0.0
2016-May-01 20:31N 44°18' E 008°31'0 0.1
2016-May-01 19:31N 44°18' E 008°31'0 0.0
2016-May-01 18:31N 44°18' E 008°31'0 0.0
2016-May-01 17:30N 44°18' E 008°31'0 0.0
2016-May-01 16:33N 44°18' E 008°31'0 0.0
2016-May-01 15:32N 44°18' E 008°31'0 0.0
2016-May-01 14:32N 44°18' E 008°31'0 0.0
2016-May-01 13:31N 44°18' E 008°31'0 0.0
2016-May-01 12:28N 44°18' E 008°31'0 0.0
2016-May-01 11:31N 44°18' E 008°31'0 0.0
2016-May-01 10:27N 44°18' E 008°31'0 0.0
2016-May-01 09:33N 44°18' E 008°31'0 0.0
2016-May-01 08:32N 44°18' E 008°31'0 0.0
2016-May-01 07:32N 44°18' E 008°31'0 0.0
2016-May-01 06:32N 44°18' E 008°31'3 3.2
2016-May-01 05:33N 44°17' E 008°35'8 8.4
2016-May-01 04:33N 44°12' E 008°44'4 4.3
2016-May-01 03:34N 44°10' E 008°50'5 5.1
2016-May-01 02:34N 44°07' E 008°55'7 6.5
2016-May-01 01:34N 44°03' E 009°02'7 7.1
2016-May-01 00:34N 43°58' E 009°10'7 6.9
2016-Apr-30 23:34N 43°54' E 009°18'7 7.1
2016-Apr-30 22:33N 43°50' E 009°25'7 7.0
2016-Apr-30 21:34N 43°46' E 009°34'7 7.1
2016-Apr-30 20:34N 43°42' E 009°42'7 6.7
2016-Apr-30 19:34N 43°38' E 009°49'6 6.1
2016-Apr-30 18:33N 43°34' E 009°56'7 7.3
2016-Apr-30 17:34N 43°31' E 010°05'7 6.9
2016-Apr-30 16:34N 43°31' E 010°14'3 3.2
2016-Apr-30 15:32N 43°33' E 010°18'0 0.0
2016-Apr-30 14:31N 43°33' E 010°18'0 0.0
2016-Apr-30 13:31N 43°33' E 010°18'0 0.0
2016-Apr-30 12:33N 43°33' E 010°18'0 0.0
2016-Apr-30 11:33N 43°33' E 010°18'0 0.0
2016-Apr-30 10:32N 43°33' E 010°18'0 0.0
2016-Apr-30 09:29N 43°33' E 010°18'0 0.0
2016-Apr-30 08:32N 43°33' E 010°18'0 0.0
2016-Apr-30 07:31N 43°33' E 010°18'0 0.0
2016-Apr-30 06:31N 43°33' E 010°18'0 0.0
2016-Apr-30 05:33N 43°33' E 010°18'0 0.0
2016-Apr-30 04:33N 43°33' E 010°18'0 0.0
2016-Apr-30 03:32N 43°33' E 010°18'0 0.0
2016-Apr-30 02:32N 43°33' E 010°18'0 0.0
2016-Apr-30 01:32N 43°33' E 010°18'0 0.0
2016-Apr-30 00:28N 43°33' E 010°18'0 0.0
2016-Apr-29 23:31N 43°33' E 010°18'0 0.0
2016-Apr-29 22:30N 43°33' E 010°18'0 0.0
2016-Apr-29 21:30N 43°33' E 010°18'0 0.0
2016-Apr-29 20:32N 43°33' E 010°18'0 0.0
2016-Apr-29 19:29N 43°33' E 010°18'0 0.0
2016-Apr-29 18:32N 43°33' E 010°18'0 0.0
2016-Apr-29 17:28N 43°33' E 010°18'0 0.0
2016-Apr-29 16:31N 43°33' E 010°18'0 0.0
2016-Apr-29 15:33N 43°33' E 010°18'0 0.0
2016-Apr-29 14:33N 43°33' E 010°18'0 0.0
2016-Apr-29 13:32N 43°33' E 010°18'0 0.0
2016-Apr-29 12:32N 43°33' E 010°18'0 0.0
2016-Apr-29 11:28N 43°33' E 010°18'0 0.0
2016-Apr-29 10:28N 43°33' E 010°18'0 0.0
2016-Apr-29 09:31N 43°33' E 010°18'0 0.0
2016-Apr-29 08:33N 43°33' E 010°18'0 0.0
2016-Apr-29 07:33N 43°33' E 010°18'0 0.0
2016-Apr-29 06:32N 43°33' E 010°18'0 0.0
2016-Apr-29 05:32N 43°33' E 010°18'0 0.0
2016-Apr-29 04:31N 43°33' E 010°18'0 0.0
2016-Apr-29 03:31N 43°33' E 010°18'0 0.0
2016-Apr-29 02:31N 43°33' E 010°18'0 0.0
2016-Apr-29 01:33N 43°33' E 010°18'0 0.0
2016-Apr-29 00:33N 43°33' E 010°18'0 0.0
2016-Apr-28 23:32N 43°33' E 010°18'0 0.0
2016-Apr-28 22:32N 43°33' E 010°18'0 0.0
2016-Apr-28 21:31N 43°33' E 010°18'0 0.0
2016-Apr-28 20:31N 43°33' E 010°18'0 0.0
2016-Apr-28 19:31N 43°33' E 010°18'0 0.0
2016-Apr-28 18:33N 43°33' E 010°18'0 0.0
2016-Apr-28 17:33N 43°33' E 010°18'0 0.0
2016-Apr-28 16:32N 43°33' E 010°18'0 0.0
2016-Apr-28 15:32N 43°33' E 010°18'0 0.0
2016-Apr-28 14:31N 43°33' E 010°18'0 0.0
2016-Apr-28 13:31N 43°33' E 010°18'0 0.0
2016-Apr-28 12:31N 43°33' E 010°18'0 0.0
2016-Apr-28 11:30N 43°33' E 010°18'0 0.0
2016-Apr-28 10:30N 43°33' E 010°18'0 0.0
2016-Apr-28 09:26N 43°33' E 010°18'0 0.0
2016-Apr-28 08:26N 43°33' E 010°18'0 0.0
2016-Apr-28 07:31N 43°33' E 010°18'0 0.0
2016-Apr-28 06:33N 43°33' E 010°18'0 0.0
2016-Apr-28 05:30N 43°33' E 010°18'0 0.0
2016-Apr-28 04:33N 43°33' E 010°18'0 0.0
2016-Apr-28 03:33N 43°33' E 010°18'0 0.0
2016-Apr-28 02:32N 43°33' E 010°18'0 0.0
2016-Apr-28 01:32N 43°33' E 010°18'1 0.6
2016-Apr-28 00:33N 43°33' E 010°18'5 4.5
2016-Apr-27 23:33N 43°29' E 010°16'1 0.9
2016-Apr-27 22:33N 43°28' E 010°15'1 1.1
2016-Apr-27 21:33N 43°28' E 010°13'1 0.6
2016-Apr-27 20:33N 43°28' E 010°13'1 0.9
2016-Apr-27 19:33N 43°29' E 010°12'4 3.8
2016-Apr-27 18:33N 43°26' E 010°09'2 1.6
2016-Apr-27 17:33N 43°26' E 010°11'2 1.7
2016-Apr-27 16:33N 43°27' E 010°13'2 1.8
2016-Apr-27 15:33N 43°27' E 010°15'1 0.6
2016-Apr-27 14:33N 43°27' E 010°16'3 2.9
2016-Apr-27 13:33N 43°25' E 010°13'1 0.9
2016-Apr-27 12:33N 43°26' E 010°14'1 1.2
2016-Apr-27 11:33N 43°26' E 010°13'1 0.7
2016-Apr-27 10:33N 43°27' E 010°13'1 1.3
2016-Apr-27 09:33N 43°28' E 010°14'2 2.2
2016-Apr-27 08:33N 43°27' E 010°11'3 3.0
2016-Apr-27 07:33N 43°25' E 010°09'3 2.9
2016-Apr-27 06:34N 43°22' E 010°10'1 1.0
2016-Apr-27 05:33N 43°23' E 010°10'1 1.1
2016-Apr-27 04:33N 43°24' E 010°10'1 1.2
2016-Apr-27 03:33N 43°25' E 010°08'8 8.5
2016-Apr-27 02:33N 43°20' E 009°59'9 9.2
2016-Apr-27 01:33N 43°16' E 009°47'9 9.3
2016-Apr-27 00:33N 43°13' E 009°36'9 9.3
2016-Apr-26 23:33N 43°09' E 009°24'  
2016-Apr-24 03:31N 40°41' E 001°11'10 9.6
2016-Apr-24 02:29N 40°31' E 001°09'9 9.6
2016-Apr-24 01:33N 40°22' E 001°07'9 9.1
2016-Apr-24 00:33N 40°13' E 001°04'9 9.0
2016-Apr-23 23:32N 40°04' E 001°01'11110.8
2016-Apr-23 13:13N 38°21' E 000°10'2012.0
2016-Apr-23 11:32N 38°04' W 000°05'1211.9
2016-Apr-23 10:33N 37°54' W 000°13'1211.6
2016-Apr-23 09:33N 37°45' W 000°21'  

Dump ship's entire track history